createdAt,value
2023-03-27T00:01:16.384Z,101087.75
2023-03-27T00:03:43.458Z,101088.16
2023-03-27T00:06:16.355Z,101094.16
2023-03-27T00:08:47.786Z,101103.41
2023-03-27T00:11:15.651Z,101109.44
2023-03-27T00:13:50.263Z,101122.31
2023-03-27T00:16:20.002Z,101127.13
2023-03-27T00:18:46.905Z,101132.78
2023-03-27T00:21:14.151Z,101130.50
2023-03-27T00:23:40.747Z,101124.81
2023-03-27T00:26:07.502Z,101131.59
2023-03-27T00:28:35.556Z,101136.25
2023-03-27T00:31:02.727Z,101137.25
2023-03-27T00:33:29.555Z,101136.97
2023-03-27T00:35:56.181Z,101137.34
2023-03-27T00:38:22.991Z,101143.97
2023-03-27T00:40:50.881Z,101141.06
2023-03-27T00:43:23.745Z,101145.44
2023-03-27T00:45:55.353Z,101141.72
2023-03-27T00:48:22.740Z,101143.09
2023-03-27T00:50:50.015Z,101147.53
2023-03-27T00:53:22.030Z,101146.63
2023-03-27T00:55:52.725Z,101153.88
2023-03-27T00:58:44.042Z,101147.25
2023-03-27T01:01:13.462Z,101158.78
2023-03-27T01:03:42.567Z,101161.28
2023-03-27T01:06:14.111Z,101164.00
2023-03-27T01:08:42.867Z,101173.69
2023-03-27T01:11:46.208Z,101162.81
2023-03-27T01:14:27.219Z,101166.50
2023-03-27T01:17:12.141Z,101167.03
2023-03-27T01:19:57.001Z,101167.91
2023-03-27T01:22:41.922Z,101161.41
2023-03-27T01:25:37.124Z,101174.25
2023-03-27T01:28:33.804Z,101170.16
2023-03-27T01:31:31.959Z,101176.13
2023-03-27T01:34:25.944Z,101170.88
2023-03-27T01:37:02.556Z,101178.28
2023-03-27T01:39:58.834Z,101179.63
2023-03-27T01:42:34.616Z,101174.09
2023-03-27T01:45:33.578Z,101185.56
2023-03-27T01:48:10.313Z,101184.00
2023-03-27T01:50:50.460Z,101191.56
2023-03-27T01:53:24.736Z,101193.38
2023-03-27T01:55:58.455Z,101205.34
2023-03-27T01:58:31.499Z,101205.69
2023-03-27T02:01:01.788Z,101205.06
2023-03-27T02:03:37.671Z,101213.13
2023-03-27T02:06:28.586Z,101214.75
2023-03-27T02:09:07.482Z,101222.59
2023-03-27T02:11:47.619Z,101229.47
2023-03-27T02:14:20.265Z,101231.09
2023-03-27T02:16:53.138Z,101226.03
2023-03-27T02:19:47.539Z,101223.06
2023-03-27T02:22:15.282Z,101228.94
2023-03-27T02:24:43.448Z,101228.78
2023-03-27T02:27:50.139Z,101228.41
2023-03-27T02:30:19.282Z,101222.53
2023-03-27T02:32:58.417Z,101224.00
2023-03-27T02:35:37.038Z,101221.22
2023-03-27T02:38:17.507Z,101227.44
2023-03-27T02:41:07.328Z,101236.75
2023-03-27T02:43:52.840Z,101232.50
2023-03-27T02:46:35.442Z,101238.41
2023-03-27T02:49:07.724Z,101236.94
2023-03-27T02:51:41.543Z,101234.78
2023-03-27T02:54:28.883Z,101236.59
2023-03-27T02:57:01.535Z,101239.03
2023-03-27T02:59:35.892Z,101245.91
2023-03-27T03:02:12.538Z,101245.75
2023-03-27T03:04:57.129Z,101248.69
2023-03-27T03:07:27.514Z,101248.03
2023-03-27T03:09:54.421Z,101248.69
2023-03-27T03:12:21.603Z,101245.09
2023-03-27T03:14:48.141Z,101246.09
2023-03-27T03:17:16.212Z,101238.56
2023-03-27T03:19:42.821Z,101237.75
2023-03-27T03:22:09.968Z,101245.44
2023-03-27T03:24:36.872Z,101250.66
2023-03-27T03:27:04.397Z,101249.22
2023-03-27T03:29:35.527Z,101256.09
2023-03-27T03:32:02.540Z,101259.72
2023-03-27T03:34:30.476Z,101263.31
2023-03-27T03:36:56.999Z,101275.78
2023-03-27T03:39:23.573Z,101277.59
2023-03-27T03:41:50.420Z,101283.81
2023-03-27T03:44:17.457Z,101282.00
2023-03-27T03:46:44.024Z,101277.09
2023-03-27T03:49:10.812Z,101279.72
2023-03-27T03:51:37.756Z,101277.28
2023-03-27T03:54:09.176Z,101275.81
2023-03-27T03:56:41.411Z,101281.25
2023-03-27T03:59:09.307Z,101277.78
2023-03-27T04:01:35.896Z,101287.94
2023-03-27T04:04:02.595Z,101286.31
2023-03-27T04:06:31.027Z,101290.88
2023-03-27T04:08:58.178Z,101289.91
2023-03-27T04:11:24.770Z,101280.59
2023-03-27T04:13:51.316Z,101278.97
2023-03-27T04:16:17.852Z,101282.56
2023-03-27T04:18:45.332Z,101286.34
2023-03-27T04:21:14.299Z,101298.28
2023-03-27T04:23:42.087Z,101304.69
2023-03-27T04:26:12.275Z,101297.00
2023-03-27T04:28:40.115Z,101291.91
2023-03-27T04:31:08.156Z,101279.81
2023-03-27T04:33:39.388Z,101281.78
2023-03-27T04:36:08.391Z,101282.59
2023-03-27T04:38:37.131Z,101284.56
2023-03-27T04:41:04.583Z,101296.03
2023-03-27T04:43:31.287Z,101296.03
2023-03-27T04:45:57.935Z,101300.47
2023-03-27T04:48:24.524Z,101306.53
2023-03-27T04:50:51.114Z,101318.81
2023-03-27T04:53:20.451Z,101305.06
2023-03-27T04:55:51.259Z,101303.41
2023-03-27T04:58:18.715Z,101312.28
2023-03-27T05:00:53.956Z,101314.53
2023-03-27T05:03:20.572Z,101322.56
2023-03-27T05:05:49.626Z,101325.53
2023-03-27T05:08:17.249Z,101330.94
2023-03-27T05:10:44.871Z,101328.47
2023-03-27T05:13:12.358Z,101335.50
2023-03-27T05:15:39.162Z,101340.13
2023-03-27T05:18:07.197Z,101341.94
2023-03-27T05:20:34.282Z,101336.69
2023-03-27T05:23:00.916Z,101340.28
2023-03-27T05:25:28.790Z,101352.41
2023-03-27T05:27:55.603Z,101356.47
2023-03-27T05:30:23.847Z,101352.22
2023-03-27T05:32:52.460Z,101365.50
2023-03-27T05:35:21.655Z,101363.03
2023-03-27T05:37:49.992Z,101365.50
2023-03-27T05:40:20.612Z,101354.19
2023-03-27T05:42:47.118Z,101349.59
2023-03-27T05:45:14.451Z,101358.28
2023-03-27T05:47:52.620Z,101369.56
2023-03-27T05:50:22.104Z,101362.72
2023-03-27T05:52:57.683Z,101365.31
2023-03-27T05:55:27.384Z,101362.72
2023-03-27T05:57:54.620Z,101366.31
2023-03-27T06:00:26.218Z,101374.00
2023-03-27T06:02:57.621Z,101372.38
2023-03-27T06:05:26.811Z,101380.03
2023-03-27T06:07:53.964Z,101380.84
2023-03-27T06:10:20.769Z,101381.03
2023-03-27T06:12:48.947Z,101387.28
2023-03-27T06:15:16.341Z,101395.63
2023-03-27T06:17:43.900Z,101394.44
2023-03-27T06:20:12.569Z,101393.81
2023-03-27T06:22:45.741Z,101394.81
2023-03-27T06:25:12.985Z,101401.66
2023-03-27T06:27:45.465Z,101402.00
2023-03-27T06:30:14.012Z,101397.41
2023-03-27T06:32:52.037Z,101395.63
2023-03-27T06:35:19.873Z,101398.22
2023-03-27T06:37:50.660Z,101401.50
2023-03-27T06:40:25.136Z,101398.34
2023-03-27T06:42:57.145Z,101407.88
2023-03-27T06:45:26.090Z,101409.31
2023-03-27T06:47:56.762Z,101403.09
2023-03-27T06:50:40.389Z,101404.56
2023-03-27T06:53:19.675Z,101398.69
2023-03-27T06:55:52.976Z,101412.28
2023-03-27T06:58:19.746Z,101409.47
2023-03-27T07:00:48.947Z,101419.63
2023-03-27T07:03:16.185Z,101423.88
2023-03-27T07:05:42.885Z,101424.50
2023-03-27T07:08:22.397Z,101423.84
2023-03-27T07:11:03.738Z,101421.91
2023-03-27T07:13:37.425Z,101432.84
2023-03-27T07:16:04.502Z,101441.38
2023-03-27T07:18:31.171Z,101436.59
2023-03-27T07:20:57.884Z,101444.28
2023-03-27T07:23:24.607Z,101439.72
2023-03-27T07:25:52.173Z,101433.94
2023-03-27T07:28:19.446Z,101440.00
2023-03-27T07:30:46.381Z,101440.69
2023-03-27T07:33:13.328Z,101437.88
2023-03-27T07:35:44.091Z,101446.53
2023-03-27T07:38:11.029Z,101455.06
2023-03-27T07:40:40.308Z,101452.59
2023-03-27T07:43:07.762Z,101461.13
2023-03-27T07:45:35.735Z,101463.75
2023-03-27T07:48:16.081Z,101466.19
2023-03-27T07:50:43.602Z,101474.53
2023-03-27T07:53:10.170Z,101465.34
2023-03-27T07:55:59.197Z,101476.50
2023-03-27T07:58:26.334Z,101476.00
2023-03-27T08:00:53.048Z,101474.47
2023-03-27T08:03:21.065Z,101476.44
2023-03-27T08:05:54.172Z,101481.97
2023-03-27T08:08:20.884Z,101482.13
2023-03-27T08:10:47.924Z,101481.44
2023-03-27T08:13:14.504Z,101489.25
2023-03-27T08:15:41.367Z,101488.59
2023-03-27T08:18:09.034Z,101486.91
2023-03-27T08:20:35.804Z,101484.59
2023-03-27T08:23:02.802Z,101491.75
2023-03-27T08:25:33.035Z,101488.25
2023-03-27T08:28:00.281Z,101490.00
2023-03-27T08:30:26.912Z,101496.88
2023-03-27T08:32:53.554Z,101494.00
2023-03-27T08:35:20.454Z,101497.84
2023-03-27T08:37:47.234Z,101496.44
2023-03-27T08:40:21.300Z,101492.59
2023-03-27T08:42:52.387Z,101504.31
2023-03-27T08:45:29.444Z,101498.63
2023-03-27T08:48:13.429Z,101496.38
2023-03-27T08:50:48.341Z,101498.19
2023-03-27T08:53:30.801Z,101502.47
2023-03-27T08:55:57.706Z,101505.78
2023-03-27T08:58:24.526Z,101501.94
2023-03-27T09:01:01.020Z,101504.84
2023-03-27T09:03:59.948Z,101509.22
2023-03-27T09:06:39.749Z,101503.41
2023-03-27T09:09:08.771Z,101502.03
2023-03-27T09:11:41.463Z,101506.53
2023-03-27T09:14:27.102Z,101505.91
2023-03-27T09:16:56.854Z,101506.47
2023-03-27T09:20:20.442Z,101508.88
2023-03-27T09:22:58.035Z,101512.69
2023-03-27T09:25:36.596Z,101514.81
2023-03-27T09:28:03.923Z,101503.50
2023-03-27T09:30:32.598Z,101503.94
2023-03-27T09:33:05.829Z,101494.41
2023-03-27T09:35:35.319Z,101504.19
2023-03-27T09:38:13.160Z,101505.81
2023-03-27T09:40:47.531Z,101510.47
2023-03-27T09:43:29.236Z,101503.50
2023-03-27T09:45:57.489Z,101505.13
2023-03-27T09:48:50.342Z,101512.47
2023-03-27T09:51:49.498Z,101507.19
2023-03-27T09:54:18.886Z,101512.25
2023-03-27T09:56:51.970Z,101502.06
2023-03-27T09:59:37.552Z,101512.44
2023-03-27T10:02:31.087Z,101505.16
2023-03-27T10:05:27.197Z,101508.59
2023-03-27T10:07:53.772Z,101500.25
2023-03-27T10:10:21.212Z,101499.00
2023-03-27T10:12:54.840Z,101494.09
2023-03-27T10:15:37.022Z,101489.38
2023-03-27T10:18:21.485Z,101493.84
2023-03-27T10:20:53.282Z,101494.00
2023-03-27T10:23:28.500Z,101493.91
2023-03-27T10:26:00.445Z,101493.03
2023-03-27T10:28:28.039Z,101488.09
2023-03-27T10:31:00.852Z,101491.25
2023-03-27T10:33:31.443Z,101488.66
2023-03-27T10:35:59.263Z,101494.88
2023-03-27T10:38:27.650Z,101484.88
2023-03-27T10:40:55.328Z,101488.44
2023-03-27T10:43:32.948Z,101486.53
2023-03-27T10:46:05.070Z,101484.25
2023-03-27T10:48:39.470Z,101480.69
2023-03-27T10:51:21.537Z,101494.09
2023-03-27T10:53:55.867Z,101490.13
2023-03-27T10:56:57.422Z,101480.28
2023-03-27T10:59:40.927Z,101481.22
2023-03-27T11:02:31.635Z,101475.38
2023-03-27T11:05:13.151Z,101478.41
2023-03-27T11:07:49.345Z,101484.31
2023-03-27T11:10:38.137Z,101480.28
2023-03-27T11:13:14.605Z,101480.72
2023-03-27T11:16:01.992Z,101480.03
2023-03-27T11:18:34.594Z,101481.44
2023-03-27T11:21:12.972Z,101482.59
2023-03-27T11:23:42.552Z,101480.03
2023-03-27T11:26:12.968Z,101477.44
2023-03-27T11:29:04.258Z,101471.19
2023-03-27T11:31:48.337Z,101466.00
2023-03-27T11:34:29.427Z,101469.00
2023-03-27T11:37:45.851Z,101473.88
2023-03-27T11:40:20.923Z,101465.38
2023-03-27T11:42:47.938Z,101465.84
2023-03-27T11:45:23.333Z,101469.75
2023-03-27T11:47:59.594Z,101466.25
2023-03-27T11:50:48.778Z,101462.81
2023-03-27T11:53:39.560Z,101463.91
2023-03-27T11:56:09.739Z,101461.50
2023-03-27T11:58:48.667Z,101468.97
2023-03-27T12:01:27.730Z,101461.69
2023-03-27T12:04:04.821Z,101460.25
2023-03-27T12:06:57.038Z,101459.59
2023-03-27T12:09:57.014Z,101467.53
2023-03-27T12:12:30.774Z,101458.56
2023-03-27T12:15:35.932Z,101461.88
2023-03-27T12:18:14.289Z,101460.88
2023-03-27T12:20:51.845Z,101456.34
2023-03-27T12:23:31.440Z,101454.47
2023-03-27T12:26:13.246Z,101452.84
2023-03-27T12:28:42.769Z,101459.53
2023-03-27T12:31:23.816Z,101455.72
2023-03-27T12:34:03.244Z,101447.91
2023-03-27T12:36:37.988Z,101453.75
2023-03-27T12:39:23.170Z,101456.38
2023-03-27T12:41:50.024Z,101456.63
2023-03-27T12:44:20.157Z,101454.69
2023-03-27T12:47:24.750Z,101453.28
2023-03-27T12:49:58.683Z,101457.66
2023-03-27T12:52:28.613Z,101462.09
2023-03-27T12:55:06.049Z,101455.84
2023-03-27T12:57:43.222Z,101462.09
2023-03-27T13:00:21.621Z,101449.84
2023-03-27T13:03:02.630Z,101453.31
2023-03-27T13:05:45.725Z,101452.00
2023-03-27T13:08:37.696Z,101455.00
2023-03-27T13:11:28.479Z,101450.72
2023-03-27T13:14:23.354Z,101440.28
2023-03-27T13:17:02.324Z,101434.59
2023-03-27T13:19:50.765Z,101440.44
2023-03-27T13:22:23.737Z,101444.41
2023-03-27T13:24:53.252Z,101440.38
2023-03-27T13:27:38.359Z,101438.19
2023-03-27T13:30:06.078Z,101439.47
2023-03-27T13:32:35.740Z,101438.69
2023-03-27T13:35:21.222Z,101439.00
2023-03-27T13:37:50.616Z,101443.59
2023-03-27T13:40:24.746Z,101437.34
2023-03-27T13:42:55.353Z,101430.91
2023-03-27T13:45:26.479Z,101430.75
2023-03-27T13:48:28.477Z,101423.03
2023-03-27T13:51:20.590Z,101421.09
2023-03-27T13:53:56.611Z,101428.50
2023-03-27T13:57:08.189Z,101424.13
2023-03-27T14:00:04.093Z,101420.97
2023-03-27T14:02:49.418Z,101429.38
2023-03-27T14:05:22.636Z,101431.88
2023-03-27T14:07:57.840Z,101427.22
2023-03-27T14:11:01.082Z,101429.50
2023-03-27T14:13:58.345Z,101433.19
2023-03-27T14:16:53.826Z,101428.44
2023-03-27T14:19:34.870Z,101433.78
2023-03-27T14:22:20.023Z,101432.41
2023-03-27T14:24:54.670Z,101436.06
2023-03-27T14:27:22.893Z,101426.06
2023-03-27T14:30:07.495Z,101434.59
2023-03-27T14:32:34.215Z,101433.69
2023-03-27T14:35:06.600Z,101423.44
2023-03-27T14:37:36.789Z,101420.22
2023-03-27T14:40:20.071Z,101420.97
2023-03-27T14:42:49.747Z,101418.78
2023-03-27T14:45:27.428Z,101414.38
2023-03-27T14:48:07.870Z,101414.09
2023-03-27T14:50:38.242Z,101423.63
2023-03-27T14:53:10.778Z,101422.72
2023-03-27T14:55:39.859Z,101406.63
2023-03-27T14:58:12.841Z,101415.34
2023-03-27T15:00:41.096Z,101417.69
2023-03-27T15:03:16.445Z,101414.91
2023-03-27T15:06:17.260Z,101408.94
2023-03-27T15:08:50.848Z,101405.34
2023-03-27T15:11:22.005Z,101417.81
2023-03-27T15:13:48.875Z,101409.38
2023-03-27T15:16:25.932Z,101408.47
2023-03-27T15:19:12.150Z,101408.84
2023-03-27T15:21:49.396Z,101402.28
2023-03-27T15:24:26.561Z,101407.19
2023-03-27T15:26:56.157Z,101413.88
2023-03-27T15:29:28.419Z,101419.38
2023-03-27T15:31:57.054Z,101413.34
2023-03-27T15:34:35.030Z,101411.97
2023-03-27T15:37:10.726Z,101419.06
2023-03-27T15:39:57.740Z,101408.84
2023-03-27T15:42:24.575Z,101413.63
2023-03-27T15:44:51.136Z,101409.09
2023-03-27T15:47:26.118Z,101407.00
2023-03-27T15:50:29.766Z,101406.53
2023-03-27T15:52:58.253Z,101411.41
2023-03-27T15:55:44.037Z,101405.72
2023-03-27T15:58:20.372Z,101407.00
2023-03-27T16:00:49.342Z,101409.66
2023-03-27T16:03:21.681Z,101399.00
2023-03-27T16:05:51.408Z,101395.53
2023-03-27T16:08:29.456Z,101386.38
2023-03-27T16:10:56.630Z,101383.97
2023-03-27T16:13:35.049Z,101379.31
2023-03-27T16:16:20.750Z,101384.53
2023-03-27T16:18:49.448Z,101386.66
2023-03-27T16:21:16.089Z,101384.91
2023-03-27T16:23:44.022Z,101378.66
2023-03-27T16:26:16.524Z,101382.03
2023-03-27T16:28:43.285Z,101381.69
2023-03-27T16:31:15.967Z,101382.34
2023-03-27T16:33:46.292Z,101381.78
2023-03-27T16:36:16.045Z,101381.69
2023-03-27T16:38:43.919Z,101372.31
2023-03-27T16:41:15.309Z,101377.88
2023-03-27T16:43:43.041Z,101374.06
2023-03-27T16:46:16.967Z,101375.56
2023-03-27T16:48:43.552Z,101369.06
2023-03-27T16:51:10.293Z,101366.63
2023-03-27T16:53:36.834Z,101366.88
2023-03-27T16:56:05.102Z,101366.28
2023-03-27T16:58:31.691Z,101366.72
2023-03-27T17:00:58.319Z,101363.50
2023-03-27T17:03:25.032Z,101360.50
2023-03-27T17:05:51.753Z,101367.66
2023-03-27T17:08:18.949Z,101359.56
2023-03-27T17:10:45.978Z,101365.34
2023-03-27T17:13:12.484Z,101354.34
2023-03-27T17:15:40.384Z,101352.38
2023-03-27T17:18:07.101Z,101361.25
2023-03-27T17:20:35.399Z,101355.56
2023-03-27T17:23:01.978Z,101363.19
2023-03-27T17:25:28.611Z,101361.00
2023-03-27T17:27:55.387Z,101355.78
2023-03-27T17:30:34.574Z,101350.09
2023-03-27T17:33:01.816Z,101350.81
2023-03-27T17:35:28.925Z,101357.38
2023-03-27T17:37:55.816Z,101357.72
2023-03-27T17:40:23.215Z,101356.97
2023-03-27T17:42:49.774Z,101352.47
2023-03-27T17:45:17.145Z,101360.41
2023-03-27T17:47:43.868Z,101360.34
2023-03-27T17:50:10.679Z,101355.78
2023-03-27T17:52:37.197Z,101359.19
2023-03-27T17:55:03.997Z,101357.09
2023-03-27T17:57:30.860Z,101357.22
2023-03-27T17:59:57.685Z,101352.22
2023-03-27T18:02:24.329Z,101358.44
2023-03-27T18:04:53.852Z,101354.91
2023-03-27T18:07:22.677Z,101351.13
2023-03-27T18:09:49.868Z,101356.56
2023-03-27T18:12:19.426Z,101361.78
2023-03-27T18:14:46.553Z,101350.69
2023-03-27T18:17:15.764Z,101350.81
2023-03-27T18:19:42.359Z,101358.03
2023-03-27T18:22:08.852Z,101354.69
2023-03-27T18:24:35.382Z,101358.19
2023-03-27T18:27:01.939Z,101352.56
2023-03-27T18:29:30.476Z,101361.78
2023-03-27T18:31:57.101Z,101359.03
2023-03-27T18:34:23.649Z,101357.59
2023-03-27T18:36:51.772Z,101363.53
2023-03-27T18:39:19.181Z,101360.53
2023-03-27T18:41:45.939Z,101358.31
2023-03-27T18:44:12.824Z,101361.00
2023-03-27T18:46:40.246Z,101360.63
2023-03-27T18:49:17.436Z,101361.47
2023-03-27T18:51:48.359Z,101357.22
2023-03-27T18:54:14.888Z,101357.22
2023-03-27T18:56:41.446Z,101357.66
2023-03-27T18:59:10.136Z,101356.22
2023-03-27T19:01:37.010Z,101366.63
2023-03-27T19:04:04.122Z,101350.97
2023-03-27T19:06:32.571Z,101354.22
2023-03-27T19:08:59.111Z,101357.06
2023-03-27T19:11:25.907Z,101350.16
2023-03-27T19:13:52.438Z,101350.38
2023-03-27T19:16:19.040Z,101356.84
2023-03-27T19:18:45.757Z,101352.59
2023-03-27T19:21:12.432Z,101348.72
2023-03-27T19:23:38.993Z,101352.97
2023-03-27T19:26:10.630Z,101354.38
2023-03-27T19:28:37.239Z,101350.09
2023-03-27T19:31:06.468Z,101355.41
2023-03-27T19:33:33.167Z,101351.66
2023-03-27T19:35:59.804Z,101352.69
2023-03-27T19:38:27.265Z,101347.38
2023-03-27T19:40:54.916Z,101344.28
2023-03-27T19:43:22.256Z,101347.94
2023-03-27T19:46:08.045Z,101349.94
2023-03-27T19:48:42.202Z,101351.53
2023-03-27T19:51:08.997Z,101345.88
2023-03-27T19:53:35.640Z,101344.59
2023-03-27T19:56:03.413Z,101346.22
2023-03-27T19:58:30.654Z,101342.94
2023-03-27T20:00:57.521Z,101345.53
2023-03-27T20:03:24.407Z,101348.31
2023-03-27T20:05:52.896Z,101347.72
2023-03-27T20:08:21.419Z,101336.50
2023-03-27T20:10:49.048Z,101348.25
2023-03-27T20:13:17.399Z,101343.31
2023-03-27T20:15:49.641Z,101337.00
2023-03-27T20:18:18.262Z,101339.78
2023-03-27T20:20:46.276Z,101341.78
2023-03-27T20:23:14.477Z,101337.91
2023-03-27T20:25:41.465Z,101340.53
2023-03-27T20:28:08.055Z,101335.00
2023-03-27T20:30:37.258Z,101328.91
2023-03-27T20:33:04.615Z,101329.28
2023-03-27T20:35:33.312Z,101345.06
2023-03-27T20:38:04.870Z,101339.94
2023-03-27T20:40:53.024Z,101334.25
2023-03-27T20:43:22.888Z,101328.31
2023-03-27T20:45:54.879Z,101328.03
2023-03-27T20:48:22.148Z,101323.56
2023-03-27T20:50:51.466Z,101318.72
2023-03-27T20:53:31.654Z,101319.47
2023-03-27T20:56:01.215Z,101313.13
2023-03-27T20:58:28.755Z,101322.59
2023-03-27T21:00:56.188Z,101321.19
2023-03-27T21:03:23.019Z,101319.72
2023-03-27T21:05:49.623Z,101316.44
2023-03-27T21:08:16.334Z,101322.13
2023-03-27T21:10:42.975Z,101315.75
2023-03-27T21:13:09.573Z,101313.69
2023-03-27T21:15:36.358Z,101311.44
2023-03-27T21:18:03.099Z,101314.63
2023-03-27T21:20:29.628Z,101311.38
2023-03-27T21:22:56.225Z,101309.75
2023-03-27T21:25:22.914Z,101307.50
2023-03-27T21:27:49.683Z,101310.88
2023-03-27T21:30:16.944Z,101302.63
2023-03-27T21:32:43.636Z,101315.94
2023-03-27T21:35:10.540Z,101307.44
2023-03-27T21:37:37.029Z,101309.84
2023-03-27T21:40:05.004Z,101301.91
2023-03-27T21:42:31.635Z,101296.34
2023-03-27T21:44:58.153Z,101299.38
2023-03-27T21:47:31.736Z,101297.28
2023-03-27T21:50:04.292Z,101296.41
2023-03-27T21:52:30.866Z,101292.13
2023-03-27T21:55:02.998Z,101287.78
2023-03-27T21:57:30.328Z,101277.28
2023-03-27T21:59:57.516Z,101277.66
2023-03-27T22:02:24.176Z,101272.13
2023-03-27T22:04:50.883Z,101273.13
2023-03-27T22:07:17.505Z,101267.72
2023-03-27T22:09:44.894Z,101260.34
2023-03-27T22:12:11.676Z,101258.72
2023-03-27T22:14:38.191Z,101251.84
2023-03-27T22:17:04.904Z,101261.56
2023-03-27T22:19:31.595Z,101256.09
2023-03-27T22:21:58.223Z,101254.13
2023-03-27T22:24:27.617Z,101252.66
2023-03-27T22:26:54.162Z,101255.50
2023-03-27T22:29:20.886Z,101247.59
2023-03-27T22:31:47.450Z,101242.50
2023-03-27T22:34:14.068Z,101239.72
2023-03-27T22:36:40.838Z,101250.84
2023-03-27T22:39:07.785Z,101255.50
2023-03-27T22:41:34.393Z,101243.97
2023-03-27T22:44:01.852Z,101244.31
2023-03-27T22:46:28.488Z,101238.44
2023-03-27T22:48:56.531Z,101236.25
2023-03-27T22:51:23.750Z,101236.25
2023-03-27T22:53:51.193Z,101232.19
2023-03-27T22:56:18.088Z,101233.19
2023-03-27T22:58:45.778Z,101232.81
2023-03-27T23:01:12.894Z,101229.72
2023-03-27T23:03:39.858Z,101232.56
2023-03-27T23:06:07.042Z,101226.47
2023-03-27T23:08:33.836Z,101225.22
2023-03-27T23:11:06.069Z,101230.66
2023-03-27T23:13:34.777Z,101237.38
2023-03-27T23:16:01.656Z,101225.84
2023-03-27T23:18:28.524Z,101230.72
2023-03-27T23:21:00.581Z,101222.47
2023-03-27T23:23:28.690Z,101217.03
2023-03-27T23:25:57.747Z,101211.59
2023-03-27T23:28:25.748Z,101214.22
2023-03-27T23:30:58.984Z,101210.41
2023-03-27T23:33:26.305Z,101202.13
2023-03-27T23:35:59.593Z,101193.63
2023-03-27T23:38:26.191Z,101190.81
2023-03-27T23:41:00.327Z,101185.34
2023-03-27T23:43:28.713Z,101173.22
2023-03-27T23:45:56.076Z,101178.09
2023-03-27T23:48:23.500Z,101186.00
2023-03-27T23:50:51.762Z,101181.56
2023-03-27T23:53:22.411Z,101167.59
2023-03-27T23:55:49.735Z,101178.56
2023-03-27T23:58:16.295Z,101172.47
